Time;durP1;ratioP1;P1;durP2;ratioP2;P2;SDS_P1;SDS_P2;PMS_P1;PMS_P2;Temp;Humidity;BMP_temperature;BMP_pressure;BME280_temperature;BME280_humidity;BME280_pressure;Samples;Min_cycle;Max_cycle;Signal;HPM_P1;HPM_P2
2022/09/23 00:02:05;;;;;;;63.28;47.03;;;25.70;99.90;;;;;;5060511;28;20490;-65
2022/09/23 00:04:32;;;;;;;73.05;48.97;;;25.80;99.90;;;;;;5064337;28;20036;-63
2022/09/23 00:06:58;;;;;;;72.13;48.00;;;25.80;99.90;;;;;;5065369;28;20051;-64
2022/09/23 00:09:25;;;;;;;60.30;43.80;;;25.80;99.90;;;;;;5063732;28;20052;-64
2022/09/23 00:11:52;;;;;;;62.13;44.35;;;25.80;99.90;;;;;;5063358;28;20017;-63
2022/09/23 00:14:20;;;;;;;65.43;45.03;;;25.80;99.90;;;;;;5063058;28;20057;-65
2022/09/23 00:16:47;;;;;;;63.75;44.38;;;25.80;99.90;;;;;;5064759;28;20031;-64
2022/09/23 00:19:13;;;;;;;59.90;42.08;;;25.80;99.90;;;;;;5064451;28;20067;-65
2022/09/23 00:21:41;;;;;;;55.00;39.75;;;25.90;99.90;;;;;;5062589;28;20526;-64
2022/09/23 00:24:08;;;;;;;53.17;40.97;;;25.90;99.90;;;;;;5062541;28;20037;-65
2022/09/23 00:26:34;;;;;;;52.10;40.55;;;25.90;99.90;;;;;;5061767;28;20048;-63
2022/09/23 00:29:01;;;;;;;51.05;39.92;;;25.90;99.90;;;;;;5068004;28;20055;-64
2022/09/23 00:31:27;;;;;;;52.35;39.88;;;25.90;99.90;;;;;;5063729;28;20029;-68
2022/09/23 00:33:59;;;;;;;52.00;39.75;;;26.00;99.90;;;;;;5064469;28;20451;-66
2022/09/23 00:36:27;;;;;;;49.28;37.45;;;26.00;99.90;;;;;;5064841;28;20407;-65
2022/09/23 00:38:54;;;;;;;56.95;40.40;;;26.00;99.90;;;;;;5061229;28;21497;-65
2022/09/23 00:41:21;;;;;;;51.08;40.78;;;26.10;99.90;;;;;;5051321;28;20040;-66
2022/09/23 00:43:52;;;;;;;50.33;39.47;;;26.10;99.90;;;;;;5042773;28;20087;-68
2022/09/23 00:46:21;;;;;;;47.80;38.03;;;26.10;99.90;;;;;;5051350;28;20017;-67
2022/09/23 00:48:54;;;;;;;53.78;37.15;;;26.10;99.90;;;;;;5063643;28;20050;-67
2022/09/23 00:51:23;;;;;;;46.88;37.30;;;26.20;99.90;;;;;;5059816;28;20028;-70
2022/09/23 00:53:51;;;;;;;58.38;37.63;;;26.20;99.90;;;;;;5063777;28;20379;-67
2022/09/23 00:56:22;;;;;;;51.20;38.38;;;26.30;99.90;;;;;;5064611;28;20077;-67
2022/09/23 00:58:50;;;;;;;53.90;39.85;;;26.30;99.90;;;;;;5063370;28;20128;-68
2022/09/23 01:01:18;;;;;;;58.58;41.20;;;26.40;99.90;;;;;;5062332;28;20033;-68
2022/09/23 01:03:45;;;;;;;63.13;45.25;;;26.40;99.90;;;;;;5063896;28;20024;-70
2022/09/23 01:06:13;;;;;;;62.80;47.30;;;26.50;99.90;;;;;;5063557;28;20017;-68
2022/09/23 01:08:42;;;;;;;65.82;46.83;;;26.50;99.90;;;;;;5062267;28;20513;-67
2022/09/23 01:11:38;;;;;;;68.28;51.88;;;26.60;99.90;;;;;;5063071;28;20016;-68
2022/09/23 01:14:15;;;;;;;77.93;51.13;;;26.50;99.90;;;;;;5058765;28;20043;-68
2022/09/23 01:16:57;;;;;;;77.43;53.70;;;26.60;99.90;;;;;;5061772;28;20081;-68
2022/09/23 01:19:34;;;;;;;79.82;55.35;;;26.70;99.90;;;;;;5060244;28;20071;-68
2022/09/23 01:22:12;;;;;;;77.82;49.33;;;26.80;99.90;;;;;;5059311;28;20056;-68
2022/09/23 01:24:45;;;;;;;76.95;52.45;;;26.80;99.90;;;;;;5060671;28;20048;-68
2022/09/23 01:27:33;;;;;;;70.10;53.58;;;26.90;99.90;;;;;;5045792;28;20099;-68
2022/09/23 01:30:15;;;;;;;75.80;52.15;;;26.90;99.90;;;;;;5061227;28;20500;-67
2022/09/23 01:32:41;;;;;;;;;;;26.90;99.90;;;;;;5047034;28;20067;-70
2022/09/23 01:35:21;;;;;;;74.50;51.72;;;26.90;99.90;;;;;;5061377;28;19904;-71
2022/09/23 01:37:59;;;;;;;64.55;49.92;;;27.00;99.90;;;;;;5061787;28;20025;-69
2022/09/23 01:40:35;;;;;;;66.53;48.50;;;27.00;99.90;;;;;;5061721;28;20029;-69
2022/09/23 01:43:05;;;;;;;60.03;46.58;;;27.10;99.90;;;;;;5072573;28;20517;-68
2022/09/23 01:45:38;;;;;;;61.53;45.83;;;27.10;99.90;;;;;;5062415;28;20027;-67
2022/09/23 01:48:12;;;;;;;61.53;47.95;;;27.20;99.90;;;;;;5061538;28;20024;-69
2022/09/23 01:51:02;;;;;;;66.25;48.40;;;27.20;99.90;;;;;;5061437;28;20061;-65
2022/09/23 01:53:44;;;;;;;68.32;48.75;;;27.30;99.90;;;;;;5052498;28;20142;-65
2022/09/23 01:56:25;;;;;;;73.47;51.67;;;27.30;99.90;;;;;;5052738;28;20025;-65
2022/09/23 01:59:12;;;;;;;75.07;52.72;;;27.40;99.90;;;;;;5055468;28;20086;-64
2022/09/23 02:01:52;;;;;;;75.88;54.10;;;27.40;99.90;;;;;;5062661;28;20025;-64
2022/09/23 02:04:29;;;;;;;76.70;56.15;;;27.50;99.90;;;;;;5062660;28;20451;-64
2022/09/23 02:07:04;;;;;;;71.07;53.35;;;27.50;99.90;;;;;;5061822;28;20035;-64
2022/09/23 02:09:39;;;;;;;76.97;55.00;;;27.50;99.90;;;;;;5060536;28;20024;-65
2022/09/23 02:12:12;;;;;;;69.22;52.47;;;27.50;99.90;;;;;;5056921;28;20017;-64
2022/09/23 02:14:49;;;;;;;73.80;51.80;;;27.50;99.90;;;;;;5063699;28;20027;-65
2022/09/23 02:17:31;;;;;;;71.28;52.80;;;27.50;99.90;;;;;;5061369;28;20092;-65
2022/09/23 02:20:02;;;;;;;66.93;47.40;;;27.60;99.90;;;;;;5062419;28;20364;-65
2022/09/23 02:22:36;;;;;;;64.75;47.47;;;27.60;99.90;;;;;;5059574;28;20502;-65
2022/09/23 02:25:03;;;;;;;55.42;43.83;;;27.60;99.90;;;;;;5061199;28;20021;-65
2022/09/23 02:27:41;;;;;;;56.80;42.65;;;27.60;99.90;;;;;;5062800;28;20024;-64
2022/09/23 02:30:17;;;;;;;55.25;42.28;;;27.60;99.90;;;;;;5059328;28;20494;-65
2022/09/23 02:33:04;;;;;;;56.38;42.33;;;27.60;99.90;;;;;;5061169;28;20057;-65
2022/09/23 02:35:47;;;;;;;52.47;42.22;;;27.60;99.90;;;;;;5061358;28;20038;-65
2022/09/23 02:38:40;;;;;;;54.30;40.53;;;27.60;99.90;;;;;;5057593;28;20075;-65
2022/09/23 02:41:25;;;;;;;55.13;42.03;;;27.60;99.90;;;;;;5057861;28;20608;-65
2022/09/23 02:44:02;;;;;;;53.45;43.17;;;27.60;99.90;;;;;;5060115;28;20029;-65
2022/09/23 02:46:32;;;;;;;51.97;41.60;;;27.60;99.90;;;;;;5055326;28;20010;-65
2022/09/23 02:48:59;;;;;;;56.45;41.53;;;27.70;99.90;;;;;;5059261;28;20025;-69
2022/09/23 02:51:27;;;;;;;54.72;42.05;;;27.70;99.90;;;;;;5058675;28;20100;-68
2022/09/23 02:53:57;;;;;;;53.85;42.60;;;27.70;99.90;;;;;;5061557;28;20028;-67
2022/09/23 02:56:23;;;;;;;59.45;43.83;;;27.80;99.90;;;;;;5064313;28;20028;-68
2022/09/23 02:58:53;;;;;;;61.92;43.13;;;27.90;99.90;;;;;;5065245;28;20053;-68
2022/09/23 03:01:39;;;;;;;58.05;42.92;;;27.90;99.90;;;;;;5064751;28;20082;-66
2022/09/23 03:04:30;;;;;;;60.80;44.42;;;27.90;99.90;;;;;;5062258;28;20268;-66
2022/09/23 03:07:18;;;;;;;59.22;44.67;;;27.90;99.90;;;;;;5064882;28;20495;-68
2022/09/23 03:10:04;;;;;;;65.50;43.38;;;28.00;99.90;;;;;;5066623;28;20016;-69
2022/09/23 03:12:41;;;;;;;61.70;45.92;;;28.10;99.90;;;;;;5063299;28;20361;-70
2022/09/23 03:15:22;;;;;;;135.93;98.22;;;28.10;99.90;;;;;;5062746;28;20383;-67
2022/09/23 03:18:04;;;;;;;83.93;62.85;;;28.20;99.90;;;;;;5063764;28;20446;-69
2022/09/23 03:20:41;;;;;;;116.85;86.28;;;28.30;99.90;;;;;;5063140;28;20032;-70
2022/09/23 03:23:12;;;;;;;73.85;53.70;;;28.40;99.90;;;;;;5062142;28;20025;-71
2022/09/23 03:25:43;;;;;;;56.85;41.78;;;28.40;99.90;;;;;;5062227;28;20071;-70
2022/09/23 03:28:11;;;;;;;55.90;43.17;;;28.30;99.90;;;;;;5066161;28;20027;-70
2022/09/23 03:30:38;;;;;;;54.35;40.20;;;28.30;99.90;;;;;;5066283;28;20518;-70
2022/09/23 03:33:10;;;;;;;60.70;42.72;;;28.30;99.90;;;;;;5061231;28;20039;-65
2022/09/23 03:36:50;;;;;;;;;;;28.30;99.90;;;;;;5065336;28;20029;-64
2022/09/23 03:38:34;;;;;;;57.00;45.50;;;28.40;99.90;;;;;;5064693;28;19954;-65
2022/09/23 03:41:03;;;;;;;54.80;43.30;;;28.40;99.90;;;;;;5064753;28;20035;-66
2022/09/23 03:43:31;;;;;;;57.25;44.20;;;28.40;99.90;;;;;;5053124;28;20122;-65
2022/09/23 03:45:58;;;;;;;99.35;72.03;;;28.40;99.90;;;;;;5054971;28;20494;-66
2022/09/23 03:48:25;;;;;;;111.00;82.47;;;28.40;99.90;;;;;;5055150;28;20029;-66
2022/09/23 03:50:51;;;;;;;89.80;58.03;;;28.50;99.90;;;;;;5064692;28;20013;-65
2022/09/23 03:53:19;;;;;;;64.00;45.05;;;28.50;99.90;;;;;;5066522;28;20027;-66
2022/09/23 03:55:47;;;;;;;58.47;41.72;;;28.50;99.90;;;;;;5061202;28;20029;-65
2022/09/23 03:58:14;;;;;;;51.05;37.95;;;28.50;99.90;;;;;;5061282;28;20039;-65
2022/09/23 04:00:43;;;;;;;51.67;40.45;;;28.50;99.90;;;;;;5054665;28;20053;-68
2022/09/23 04:03:09;;;;;;;164.30;116.13;;;28.60;99.90;;;;;;5054927;28;20444;-66
2022/09/23 04:05:36;;;;;;;123.47;87.47;;;28.60;99.90;;;;;;5054802;28;20028;-65
2022/09/23 04:08:02;;;;;;;51.58;38.53;;;28.50;99.90;;;;;;5059702;28;20064;-65
2022/09/23 04:10:29;;;;;;;121.18;95.40;;;28.60;99.90;;;;;;5056982;28;20138;-65
2022/09/23 04:12:55;;;;;;;114.90;88.95;;;28.60;99.90;;;;;;5038738;28;20476;-66
2022/09/23 04:15:22;;;;;;;72.88;55.22;;;28.60;99.90;;;;;;5055995;28;20073;-66
2022/09/23 04:17:49;;;;;;;57.00;40.65;;;28.70;99.90;;;;;;5056374;28;20017;-65
2022/09/23 04:20:16;;;;;;;58.38;43.80;;;28.70;99.90;;;;;;5056324;28;20024;-65
2022/09/23 04:22:42;;;;;;;53.78;40.42;;;28.70;99.90;;;;;;5056359;28;20067;-64
2022/09/23 04:25:09;;;;;;;47.72;37.28;;;28.80;99.90;;;;;;5056178;28;20020;-66
2022/09/23 04:27:35;;;;;;;51.40;36.75;;;28.80;99.90;;;;;;5056026;28;20025;-65
2022/09/23 04:30:04;;;;;;;53.97;38.40;;;28.80;99.90;;;;;;5055786;28;20067;-66
2022/09/23 04:32:30;;;;;;;48.08;35.17;;;28.80;99.90;;;;;;5060311;28;20052;-67
2022/09/23 04:34:57;;;;;;;50.92;34.88;;;28.90;99.90;;;;;;5063904;28;20037;-66
2022/09/23 04:37:23;;;;;;;45.67;36.55;;;28.90;99.90;;;;;;5063115;28;20038;-66
2022/09/23 04:39:50;;;;;;;53.95;38.63;;;28.90;99.90;;;;;;5060111;28;20044;-66
2022/09/23 04:42:16;;;;;;;47.80;36.58;;;28.90;99.90;;;;;;5045898;28;20496;-66
2022/09/23 04:44:43;;;;;;;52.33;36.92;;;29.00;99.90;;;;;;5064544;28;20055;-66
2022/09/23 04:47:09;;;;;;;46.40;36.90;;;28.90;99.90;;;;;;5062573;28;20017;-65
2022/09/23 04:49:37;;;;;;;51.25;38.55;;;28.90;99.90;;;;;;5063807;28;20559;-66
2022/09/23 04:52:04;;;;;;;53.50;38.00;;;29.00;99.90;;;;;;5064379;28;20052;-69
2022/09/23 04:54:31;;;;;;;49.25;36.15;;;29.00;99.90;;;;;;5059859;28;20017;-66
2022/09/23 04:56:58;;;;;;;55.47;36.80;;;29.00;99.90;;;;;;5063406;28;20028;-66
2022/09/23 04:59:25;;;;;;;57.28;40.92;;;29.00;99.90;;;;;;5063217;28;20025;-66
2022/09/23 05:01:53;;;;;;;47.85;38.55;;;29.00;99.90;;;;;;5030376;28;20025;-71
2022/09/23 05:04:19;;;;;;;50.28;35.67;;;29.00;99.90;;;;;;5065146;28;20025;-65
2022/09/23 05:06:46;;;;;;;53.17;35.95;;;29.00;99.90;;;;;;5062670;28;20026;-64
2022/09/23 05:09:16;;;;;;;45.40;36.28;;;29.10;99.90;;;;;;5072118;28;20463;-67
2022/09/23 05:11:43;;;;;;;53.72;36.42;;;29.10;99.90;;;;;;5068369;28;20467;-66
2022/09/23 05:14:09;;;;;;;53.28;39.85;;;29.10;99.90;;;;;;5063038;28;20385;-65
2022/09/23 05:16:39;;;;;;;54.13;37.17;;;29.10;99.90;;;;;;5061124;28;20044;-66
2022/09/23 05:19:05;;;;;;;44.67;35.15;;;29.10;99.90;;;;;;5060398;28;20083;-65
2022/09/23 05:21:32;;;;;;;49.42;35.35;;;29.10;99.90;;;;;;5057822;28;20132;-65
2022/09/23 05:23:59;;;;;;;50.75;36.15;;;29.10;99.90;;;;;;5057817;28;20090;-66
2022/09/23 05:26:28;;;;;;;41.83;32.30;;;29.10;99.90;;;;;;5057439;28;20379;-65
2022/09/23 05:28:56;;;;;;;45.53;32.40;;;29.20;99.90;;;;;;5058018;28;20100;-65
2022/09/23 05:31:25;;;;;;;41.03;33.22;;;29.10;99.90;;;;;;5055708;28;20025;-65
2022/09/23 05:34:02;;;;;;;39.28;31.80;;;29.10;99.90;;;;;;5057568;28;20031;-65
2022/09/23 05:36:30;;;;;;;49.03;36.00;;;29.10;99.90;;;;;;5059413;28;20461;-65
2022/09/23 05:38:57;;;;;;;40.97;32.20;;;29.10;99.90;;;;;;5058630;28;20041;-65
2022/09/23 05:41:25;;;;;;;41.97;33.20;;;29.10;99.90;;;;;;5062211;28;20025;-65
2022/09/23 05:43:53;;;;;;;44.90;33.97;;;29.20;99.90;;;;;;5062709;28;20107;-65
2022/09/23 05:46:23;;;;;;;46.30;33.67;;;29.20;99.90;;;;;;5072477;28;20052;-65
2022/09/23 05:48:50;;;;;;;50.15;36.50;;;29.20;99.90;;;;;;5073286;28;20051;-64
2022/09/23 05:51:21;;;;;;;52.17;37.25;;;29.20;99.90;;;;;;5073084;28;20033;-65
2022/09/23 05:53:51;;;;;;;57.20;37.60;;;29.20;99.90;;;;;;5072374;28;20028;-66
2022/09/23 05:56:20;;;;;;;45.03;36.17;;;29.20;99.90;;;;;;5061120;28;20068;-65
2022/09/23 05:58:49;;;;;;;55.08;37.60;;;29.30;99.90;;;;;;5065448;28;20029;-65
2022/09/23 06:01:21;;;;;;;58.63;43.35;;;29.20;99.90;;;;;;5065793;28;20044;-65
2022/09/23 06:03:48;;;;;;;55.33;43.75;;;29.30;99.90;;;;;;5065307;28;20429;-65
2022/09/23 06:06:17;;;;;;;73.50;56.53;;;29.30;99.90;;;;;;5065814;28;20122;-65
2022/09/23 06:08:45;;;;;;;74.90;51.67;;;29.30;99.90;;;;;;5064581;28;20021;-65
2022/09/23 06:11:12;;;;;;;69.40;51.05;;;29.30;99.90;;;;;;5065337;28;20070;-65
2022/09/23 06:13:40;;;;;;;72.85;49.80;;;29.30;99.90;;;;;;5055340;28;20032;-65
2022/09/23 06:16:08;;;;;;;70.65;49.78;;;29.30;99.90;;;;;;5033112;28;20029;-66
2022/09/23 06:18:39;;;;;;;60.22;42.75;;;29.30;99.90;;;;;;5044522;28;20025;-66
2022/09/23 06:21:06;;;;;;;52.78;39.35;;;29.30;99.90;;;;;;5036080;28;20088;-66
2022/09/23 06:23:32;;;;;;;54.47;41.97;;;29.30;99.90;;;;;;5032839;28;20109;-66
2022/09/23 06:26:03;;;;;;;46.30;36.78;;;29.40;99.90;;;;;;5032902;28;20064;-65
2022/09/23 06:28:31;;;;;;;83.70;62.67;;;29.40;99.90;;;;;;5046003;28;20096;-66
2022/09/23 06:31:00;;;;;;;42.63;35.05;;;29.40;99.90;;;;;;5053615;28;20079;-66
2022/09/23 06:33:27;;;;;;;56.00;37.05;;;29.30;99.90;;;;;;5056555;28;20077;-66
2022/09/23 06:35:56;;;;;;;59.58;40.97;;;29.30;99.90;;;;;;5056024;28;20041;-66
2022/09/23 06:38:24;;;;;;;55.08;38.20;;;29.30;99.90;;;;;;5047425;28;20026;-66
2022/09/23 06:40:51;;;;;;;46.13;34.88;;;29.30;99.90;;;;;;5036458;28;20078;-66
2022/09/23 06:43:18;;;;;;;47.20;37.80;;;29.30;99.90;;;;;;5036618;28;20021;-66
2022/09/23 06:45:45;;;;;;;49.88;36.88;;;29.40;99.90;;;;;;5042742;28;20050;-65
2022/09/23 06:48:11;;;;;;;47.90;36.78;;;29.40;99.90;;;;;;5056962;28;20100;-66
2022/09/23 06:50:38;;;;;;;51.08;36.75;;;29.40;99.90;;;;;;5056420;28;20074;-66
2022/09/23 06:53:04;;;;;;;55.67;37.75;;;29.40;99.90;;;;;;5056379;28;20391;-66
2022/09/23 06:55:31;;;;;;;46.78;34.35;;;29.40;99.90;;;;;;5055963;28;20030;-65
2022/09/23 06:57:58;;;;;;;43.28;33.75;;;29.50;99.90;;;;;;5056202;28;20039;-65
2022/09/23 07:00:25;;;;;;;43.15;32.58;;;29.50;99.90;;;;;;5056166;28;20040;-67
2022/09/23 07:02:53;;;;;;;43.00;32.92;;;29.40;99.90;;;;;;5055873;28;20033;-68
2022/09/23 07:05:21;;;;;;;45.55;32.17;;;29.50;99.90;;;;;;5056388;28;20100;-69
2022/09/23 07:07:48;;;;;;;45.42;34.60;;;29.50;99.90;;;;;;5055967;28;20028;-65
2022/09/23 07:10:15;;;;;;;47.20;35.58;;;29.40;99.90;;;;;;5055921;28;20022;-63
2022/09/23 07:12:42;;;;;;;49.83;38.33;;;29.40;99.90;;;;;;5055931;28;20044;-64
2022/09/23 07:15:09;;;;;;;52.45;34.35;;;29.50;99.90;;;;;;5055989;28;20024;-65
2022/09/23 07:17:35;;;;;;;46.45;34.22;;;29.50;99.90;;;;;;5055914;28;20444;-64
2022/09/23 07:20:03;;;;;;;47.28;35.20;;;29.50;99.90;;;;;;5055877;28;20029;-70
2022/09/23 07:22:29;;;;;;;45.28;31.90;;;29.50;99.90;;;;;;5055981;28;20048;-66
2022/09/23 07:24:56;;;;;;;58.30;36.67;;;29.50;99.90;;;;;;5055526;28;20021;-65
2022/09/23 07:27:26;;;;;;;56.35;42.22;;;29.50;99.90;;;;;;5056107;28;20029;-65
2022/09/23 07:29:53;;;;;;;54.60;38.30;;;29.50;99.90;;;;;;5055891;28;20025;-65
2022/09/23 07:32:21;;;;;;;56.13;37.03;;;29.50;99.90;;;;;;5063194;28;20350;-65
2022/09/23 07:34:48;;;;;;;100.10;75.72;;;29.50;99.90;;;;;;5066168;28;20107;-65
2022/09/23 07:37:16;;;;;;;65.32;53.55;;;29.50;99.90;;;;;;5064863;28;20305;-65
2022/09/23 07:39:44;;;;;;;94.97;65.47;;;29.60;99.90;;;;;;5066099;28;20048;-65
2022/09/23 07:42:12;;;;;;;68.63;49.35;;;29.70;99.90;;;;;;5065687;28;20024;-65
2022/09/23 07:44:38;;;;;;;52.08;38.97;;;29.70;99.90;;;;;;5061731;28;20028;-67
2022/09/23 07:47:05;;;;;;;52.42;39.92;;;29.70;99.90;;;;;;5065125;28;20017;-65
2022/09/23 07:49:35;;;;;;;100.15;75.88;;;29.70;99.90;;;;;;5066571;28;20455;-70
2022/09/23 07:52:02;;;;;;;53.13;40.30;;;29.70;99.90;;;;;;5063515;28;20086;-69
2022/09/23 07:54:29;;;;;;;55.35;41.78;;;29.70;99.90;;;;;;5064857;28;20074;-68
2022/09/23 07:56:56;;;;;;;95.10;72.53;;;29.70;99.90;;;;;;5066504;28;20031;-70
2022/09/23 07:59:23;;;;;;;58.60;44.55;;;29.70;99.90;;;;;;5063341;28;20078;-67
2022/09/23 08:01:52;;;;;;;63.75;44.80;;;29.60;99.90;;;;;;5065704;28;20491;-67
2022/09/23 08:04:27;;;;;;;70.13;51.80;;;29.70;99.90;;;;;;5062057;28;20021;-67
2022/09/23 08:06:57;;;;;;;74.95;54.45;;;29.70;99.90;;;;;;5063710;28;20013;-67
2022/09/23 08:09:30;;;;;;;171.15;114.28;;;29.70;99.90;;;;;;5064952;28;20075;-65
2022/09/23 08:11:57;;;;;;;44.15;35.13;;;29.70;99.90;;;;;;5058465;28;20113;-70
2022/09/23 08:14:24;;;;;;;43.72;33.30;;;29.70;99.90;;;;;;5062911;28;20021;-67
2022/09/23 08:16:51;;;;;;;57.15;38.15;;;29.60;99.90;;;;;;5065714;28;20024;-66
2022/09/23 08:19:18;;;;;;;57.28;41.20;;;29.70;99.90;;;;;;5060923;28;20478;-67
2022/09/23 08:21:46;;;;;;;181.40;113.38;;;29.70;99.90;;;;;;5066180;28;20040;-67
2022/09/23 08:24:16;;;;;;;351.45;225.32;;;29.80;99.90;;;;;;5063285;28;20041;-66
2022/09/23 08:26:44;;;;;;;148.30;92.97;;;29.80;99.90;;;;;;5064681;28;20024;-67
2022/09/23 08:29:14;;;;;;;233.63;155.85;;;29.80;99.90;;;;;;5064929;28;20490;-66
2022/09/23 08:31:41;;;;;;;244.43;142.52;;;29.90;99.90;;;;;;5061390;28;20016;-67
2022/09/23 08:34:08;;;;;;;190.32;107.72;;;29.90;99.90;;;;;;5063758;28;20383;-67
2022/09/23 08:36:35;;;;;;;77.28;49.95;;;29.80;99.90;;;;;;5064851;28;20031;-66
2022/09/23 08:39:02;;;;;;;136.95;80.40;;;29.90;99.90;;;;;;5064591;28;20044;-66
2022/09/23 08:41:38;;;;;;;148.77;83.63;;;29.80;99.90;;;;;;5065340;28;20021;-67
2022/09/23 08:44:31;;;;;;;137.70;84.13;;;29.90;99.90;;;;;;5065088;28;20059;-66
2022/09/23 08:47:10;;;;;;;89.63;55.65;;;29.80;99.90;;;;;;5063450;28;20536;-67
2022/09/23 08:49:47;;;;;;;69.25;48.20;;;29.90;99.90;;;;;;5063252;28;20530;-67
2022/09/23 08:52:20;;;;;;;78.05;52.83;;;29.80;99.90;;;;;;5062980;28;20051;-67
2022/09/23 08:54:46;;;;;;;79.63;52.47;;;29.70;99.90;;;;;;5062792;28;20021;-65
2022/09/23 08:57:37;;;;;;;61.33;40.35;;;29.70;99.90;;;;;;5064787;28;20028;-67
2022/09/23 09:00:05;;;;;;;58.22;38.55;;;29.70;99.90;;;;;;5061679;28;20387;-65
2022/09/23 09:02:35;;;;;;;70.07;43.30;;;29.70;99.90;;;;;;5066808;28;20403;-67
2022/09/23 09:05:08;;;;;;;68.97;44.13;;;29.70;99.90;;;;;;5074149;28;20104;-67
2022/09/23 09:07:37;;;;;;;67.35;45.25;;;29.70;99.90;;;;;;5073726;28;20467;-70
2022/09/23 09:10:24;;;;;;;71.25;46.08;;;29.60;99.90;;;;;;5072669;28;20104;-66
2022/09/23 09:13:05;;;;;;;85.32;56.92;;;29.60;99.90;;;;;;5057240;28;20055;-67
2022/09/23 09:15:42;;;;;;;60.53;41.60;;;29.70;99.90;;;;;;5053420;28;20040;-67
2022/09/23 09:18:22;;;;;;;50.45;36.50;;;29.70;99.90;;;;;;5053716;28;20047;-67
2022/09/23 09:20:55;;;;;;;46.50;35.65;;;29.70;99.90;;;;;;5054237;28;20032;-67
2022/09/23 09:23:37;;;;;;;55.75;39.42;;;29.70;99.90;;;;;;5053806;28;20056;-69
2022/09/23 09:26:05;;;;;;;60.58;40.20;;;29.70;99.90;;;;;;5060097;28;20020;-67
2022/09/23 09:28:37;;;;;;;57.92;43.83;;;29.70;99.90;;;;;;5073166;28;20028;-70
2022/09/23 09:31:22;;;;;;;52.50;38.53;;;29.70;99.90;;;;;;5072429;28;20071;-67
2022/09/23 09:34:03;;;;;;;52.47;37.88;;;29.70;99.90;;;;;;5061240;28;20442;-67
2022/09/23 09:37:11;;;;;;;48.92;34.88;;;29.60;99.90;;;;;;5064099;28;20021;-67
2022/09/23 09:39:38;;;;;;;47.50;36.83;;;29.60;99.90;;;;;;4972083;28;20039;-71
2022/09/23 09:42:06;;;;;;;47.80;34.53;;;29.60;99.90;;;;;;4972212;28;20089;-71
2022/09/23 09:44:39;;;;;;;56.97;41.35;;;29.60;99.90;;;;;;4971264;28;20039;-71
2022/09/23 09:47:07;;;;;;;238.85;167.32;;;29.60;99.90;;;;;;4970768;28;20026;-70
2022/09/23 09:49:57;;;;;;;117.47;72.57;;;29.60;99.90;;;;;;4971486;28;20050;-70
2022/09/23 09:52:28;;;;;;;129.13;83.82;;;29.60;99.90;;;;;;4970164;28;20142;-69
2022/09/23 09:55:25;;;;;;;82.05;53.63;;;29.60;99.90;;;;;;4970165;28;20485;-67
2022/09/23 09:58:00;;;;;;;67.28;47.63;;;29.60;99.90;;;;;;4969689;28;20022;-67
2022/09/23 10:00:27;;;;;;;153.93;108.97;;;29.60;99.90;;;;;;4970059;28;20041;-66
2022/09/23 10:03:00;;;;;;;103.28;76.90;;;29.60;99.90;;;;;;4970294;28;20051;-69
2022/09/23 10:05:49;;;;;;;58.70;41.65;;;29.60;99.90;;;;;;4973449;28;20282;-68
2022/09/23 10:08:27;;;;;;;60.22;42.83;;;29.60;99.90;;;;;;4976203;28;20481;-68
2022/09/23 10:11:00;;;;;;;80.35;51.72;;;29.60;99.90;;;;;;5059378;28;20032;-67
2022/09/23 10:13:29;;;;;;;48.97;34.45;;;29.60;99.90;;;;;;5070787;28;20505;-68
2022/09/23 10:15:57;;;;;;;51.00;33.45;;;29.50;99.90;;;;;;5067209;28;20067;-66
2022/09/23 10:18:44;;;;;;;48.97;35.55;;;29.50;99.90;;;;;;5067178;28;20028;-67
2022/09/23 10:21:13;;;;;;;39.88;30.52;;;29.50;99.90;;;;;;5068069;28;20041;-67
2022/09/23 10:23:45;;;;;;;45.40;33.53;;;29.40;99.90;;;;;;5064386;28;20025;-66
2022/09/23 10:26:16;;;;;;;47.53;33.95;;;29.40;99.90;;;;;;5065877;28;20386;-66
2022/09/23 10:28:49;;;;;;;54.70;41.78;;;29.30;99.90;;;;;;5064930;28;20566;-68
2022/09/23 10:31:26;;;;;;;118.85;79.45;;;29.30;99.90;;;;;;5068912;28;20017;-66
2022/09/23 10:34:14;;;;;;;465.63;282.42;;;29.30;99.90;;;;;;5069761;28;20017;-65
2022/09/23 10:36:42;;;;;;;602.72;390.73;;;29.30;99.90;;;;;;5063864;28;20074;-66
2022/09/23 10:48:13;;;;;;;316.63;216.73;;;29.00;99.90;;;;;;5066683;28;20017;-70
2022/09/23 10:50:47;;;;;;;194.98;126.40;;;29.00;99.90;;;;;;5069766;28;20355;-71
2022/09/23 10:53:53;;;;;;;141.82;87.72;;;28.90;99.90;;;;;;5068164;28;20083;-71
2022/09/23 10:56:29;;;;;;;154.77;95.93;;;28.90;99.90;;;;;;5066994;28;20096;-72
2022/09/23 10:58:57;;;;;;;183.65;113.88;;;28.90;99.90;;;;;;5066215;28;20032;-71
2022/09/23 11:01:24;;;;;;;191.48;109.95;;;28.90;99.90;;;;;;5067795;28;20054;-70
2022/09/23 11:04:04;;;;;;;172.80;98.43;;;28.80;99.90;;;;;;5066894;28;20046;-72
2022/09/23 11:06:45;;;;;;;129.25;73.70;;;28.90;99.90;;;;;;5062424;28;20024;-71
2022/09/23 11:09:40;;;;;;;109.57;64.78;;;28.80;99.90;;;;;;5065484;28;20055;-72
2022/09/23 11:12:09;;;;;;;134.18;77.53;;;28.90;99.90;;;;;;5064961;28;20025;-74
2022/09/23 11:14:45;;;;;;;107.68;62.97;;;28.80;99.90;;;;;;5068990;28;20025;-71
2022/09/23 11:17:30;;;;;;;116.28;65.40;;;28.80;99.90;;;;;;5062831;28;20029;-71
2022/09/23 11:20:37;;;;;;;97.55;58.83;;;28.80;99.90;;;;;;5064149;28;20329;-69
2022/09/23 11:23:13;;;;;;;173.15;97.78;;;28.70;99.90;;;;;;5061934;28;20028;-70
2022/09/23 11:25:59;;;;;;;268.63;138.52;;;28.70;99.90;;;;;;5064160;28;20430;-72
2022/09/23 11:28:28;;;;;;;226.30;112.40;;;28.70;99.90;;;;;;5062512;28;20178;-69
2022/09/23 11:30:55;;;;;;;265.02;122.35;;;28.70;99.90;;;;;;5063956;28;20085;-70
2022/09/23 11:33:42;;;;;;;196.90;99.80;;;28.60;99.90;;;;;;5104856;22;20040;-67
2022/09/23 11:36:16;;;;;;;275.23;139.43;;;28.60;99.90;;;;;;5081736;28;20357;-69
2022/09/23 11:38:48;;;;;;;228.05;115.28;;;28.60;99.90;;;;;;5078805;28;20032;-70
2022/09/23 11:41:20;;;;;;;123.77;72.93;;;28.60;99.90;;;;;;5085007;28;20029;-71
2022/09/23 11:43:52;;;;;;;148.43;76.75;;;28.60;99.90;;;;;;5082171;28;20269;-69
2022/09/23 11:46:40;;;;;;;202.77;107.97;;;28.60;99.90;;;;;;5083822;28;20078;-70
2022/09/23 11:49:22;;;;;;;223.35;118.78;;;28.60;99.90;;;;;;5081429;28;20024;-70
2022/09/23 11:51:58;;;;;;;172.57;98.80;;;28.50;99.90;;;;;;5084130;28;20128;-70
2022/09/23 11:54:30;;;;;;;93.88;60.42;;;28.50;99.90;;;;;;5083770;28;20306;-70
2022/09/23 11:57:02;;;;;;;81.53;57.13;;;28.50;99.90;;;;;;5082235;28;20103;-70
2022/09/23 11:59:30;;;;;;;;;;;28.40;99.90;;;;;;5086709;28;20529;-70
2022/09/23 12:02:05;;;;;;;87.35;55.63;;;28.50;99.90;;;;;;5083641;28;20293;-68
2022/09/23 12:04:39;;;;;;;69.93;45.78;;;28.40;99.90;;;;;;5081392;28;20029;-67
2022/09/23 12:07:15;;;;;;;80.65;50.53;;;28.40;99.90;;;;;;5080888;28;20122;-70
2022/09/23 12:09:53;;;;;;;69.55;44.28;;;28.30;99.90;;;;;;5083544;28;20121;-66
2022/09/23 12:12:39;;;;;;;67.63;43.92;;;28.30;99.90;;;;;;5080980;28;20119;-65
2022/09/23 12:15:27;;;;;;;57.75;40.58;;;28.30;99.90;;;;;;5000635;28;20034;-66
2022/09/23 12:18:03;;;;;;;67.13;43.50;;;28.30;99.90;;;;;;4934637;29;20080;-66
2022/09/23 12:20:43;;;;;;;58.25;41.35;;;28.30;99.90;;;;;;4935039;29;20028;-66
2022/09/23 12:23:31;;;;;;;65.07;41.03;;;28.30;99.90;;;;;;4934538;29;20031;-66
2022/09/23 12:26:02;;;;;;;57.75;40.28;;;28.20;99.90;;;;;;4933681;29;20123;-66
2022/09/23 12:28:37;;;;;;;62.60;40.28;;;28.20;99.90;;;;;;4933491;29;20035;-65
2022/09/23 12:31:10;;;;;;;58.47;40.72;;;28.20;99.90;;;;;;4934687;29;20621;-66
2022/09/23 12:33:38;;;;;;;56.60;40.33;;;28.20;99.90;;;;;;4928528;29;20530;-68
2022/09/23 12:36:10;;;;;;;59.03;39.10;;;28.20;99.90;;;;;;4934548;29;20051;-69
2022/09/23 12:38:39;;;;;;;67.68;42.78;;;28.20;99.90;;;;;;4934040;29;20118;-69
2022/09/23 12:41:26;;;;;;;65.40;46.15;;;28.20;99.90;;;;;;4934863;29;20486;-69
2022/09/23 12:43:57;;;;;;;75.93;50.53;;;28.20;99.90;;;;;;4895940;29;20048;-70
2022/09/23 12:46:26;;;;;;;65.13;45.15;;;28.20;99.90;;;;;;4939617;29;20043;-70
2022/09/23 12:51:34;;;;;;;62.15;42.10;;;28.20;99.90;;;;;;4946027;29;20034;-70
2022/09/23 12:54:21;;;;;;;55.97;40.92;;;28.10;99.90;;;;;;4960850;28;20415;-67
2022/09/23 12:56:58;;;;;;;65.53;43.47;;;28.10;99.90;;;;;;5020239;28;20034;-68
2022/09/23 12:59:28;;;;;;;69.75;47.42;;;28.00;99.90;;;;;;5020475;28;20532;-67
2022/09/23 13:01:56;;;;;;;66.50;46.33;;;28.00;99.90;;;;;;5018516;28;20508;-67
2022/09/23 13:07:32;;;;;;;67.03;44.92;;;28.00;99.90;;;;;;5021606;28;20133;-65